Time;durP1;ratioP1;P1;durP2;ratioP2;P2;SDS_P1;SDS_P2;PMS_P1;PMS_P2;Temp;Humidity;BMP_temperature;BMP_pressure;BME280_temperature;BME280_humidity;BME280_pressure;Samples;Min_cycle;Max_cycle;Signal;HPM_P1;HPM_P2
2023/11/04 00:02:22;;;;;;;;;;;;;;;3.72;53.09;93056.31;5042019;28;19938;-65
2023/11/04 00:04:47;;;;;;;;;;;;;;;4.39;53.59;93052.97;5041787;28;19952;-65
2023/11/04 00:07:12;;;;;;;;;;;;;;;4.36;53.02;93053.38;5039234;28;20559;-65
2023/11/04 00:09:37;;;;;;;;;;;;;;;4.49;53.43;93053.38;5041075;28;19935;-66
2023/11/04 00:12:03;;;;;;;;;;;;;;;4.43;56.29;93048.94;5040332;28;19962;-66
2023/11/04 00:14:28;;;;;;;;;;;;;;;4.71;53.39;93054.00;5043323;28;20418;-66
2023/11/04 00:16:54;;;;;;;;;;;;;;;4.51;50.79;93051.34;5037058;28;19974;-65
2023/11/04 00:19:19;;;;;;;;;;;;;;;4.61;50.75;93056.22;5039594;28;19989;-65
2023/11/04 00:21:44;;;;;;;;;;;;;;;4.63;53.68;93042.84;5042585;28;19935;-65
2023/11/04 00:24:10;;;;;;;;;;;;;;;4.70;53.25;93039.16;5038815;28;19993;-65
2023/11/04 00:26:35;;;;;;;;;;;;;;;4.44;52.92;93048.72;5040457;28;20515;-66
2023/11/04 00:29:00;;;;;;;;;;;;;;;4.70;52.34;93048.91;5038297;28;19977;-65
2023/11/04 00:31:27;;;;;;;;;;;;;;;4.89;54.22;93044.63;5045378;28;19954;-66
2023/11/04 00:33:53;;;;;;;;;;;;;;;4.92;52.23;93040.75;5041947;28;20015;-66
2023/11/04 00:36:18;;;;;;;;;;;;;;;2.43;57.40;93055.63;5042403;28;20035;-65
2023/11/04 00:38:43;;;;;;;;;;;;;;;4.04;56.87;93038.16;5040065;28;19959;-66
2023/11/04 00:41:08;;;;;;;;;;;;;;;4.55;56.89;93041.22;5038370;28;19931;-66
2023/11/04 00:43:36;;;;;;;;;;;;;;;4.75;56.44;93037.75;5038715;28;19974;-66
2023/11/04 00:46:01;;;;;;;;;;;;;;;4.78;57.72;93043.44;5040482;28;19935;-65
2023/11/04 00:48:27;;;;;;;;;;;;;;;4.93;56.53;93043.19;5039683;28;19951;-66
2023/11/04 00:50:52;;;;;;;;;;;;;;;5.11;57.28;93052.31;5041065;28;19924;-65
2023/11/04 00:53:17;;;;;;;;;;;;;;;4.45;51.91;93044.25;5038026;28;20572;-65
2023/11/04 00:55:42;;;;;;;;;;;;;;;4.60;50.96;93046.69;5040428;28;20392;-66
2023/11/04 00:58:07;;;;;;;;;;;;;;;4.90;53.43;93043.59;5041205;28;19950;-66
2023/11/04 01:00:34;;;;;;;;;;;;;;;5.08;52.42;93044.81;5041375;28;19962;-66
2023/11/04 01:03:00;;;;;;;;;;;;;;;5.18;51.44;93047.03;5039667;28;19921;-66
2023/11/04 01:05:25;;;;;;;;;;;;;;;4.89;54.27;93041.97;5040200;28;19929;-66
2023/11/04 01:07:51;;;;;;;;;;;;;;;5.11;52.92;93044.41;5038200;28;20514;-65
2023/11/04 01:10:17;;;;;;;;;;;;;;;5.16;52.39;93036.69;5045248;28;20029;-65
2023/11/04 01:12:42;;;;;;;;;;;;;;;5.04;54.42;93043.59;5040833;28;20042;-66
2023/11/04 01:15:07;;;;;;;;;;;;;;;4.79;56.48;93036.31;5039923;28;20069;-66
2023/11/04 01:17:33;;;;;;;;;;;;;;;5.09;52.07;93030.59;5037275;28;20286;-66
2023/11/04 01:19:58;;;;;;;;;;;;;;;5.24;53.51;93030.38;5042936;28;20470;-66
2023/11/04 01:22:23;;;;;;;;;;;;;;;4.67;53.10;93023.78;5043280;28;20464;-65
2023/11/04 01:24:49;;;;;;;;;;;;;;;3.94;54.14;93034.09;5044276;28;20570;-65
2023/11/04 01:27:14;;;;;;;;;;;;;;;4.56;53.20;93027.03;5042067;28;20486;-65
2023/11/04 01:29:39;;;;;;;;;;;;;;;4.30;52.72;93028.66;5045787;28;19921;-65
2023/11/04 01:32:05;;;;;;;;;;;;;;;4.37;52.00;93013.66;5044821;28;19932;-66
2023/11/04 01:34:31;;;;;;;;;;;;;;;4.36;50.33;93019.13;5045195;28;20147;-66
2023/11/04 01:36:56;;;;;;;;;;;;;;;2.28;54.95;93013.69;5042537;28;20349;-65
2023/11/04 01:39:21;;;;;;;;;;;;;;;2.31;55.19;93029.06;5043919;28;20058;-65
2023/11/04 01:41:47;;;;;;;;;;;;;;;2.87;54.55;93009.03;5045665;28;19929;-65
2023/11/04 01:44:12;;;;;;;;;;;;;;;3.42;52.34;93010.06;5047307;28;20077;-65
2023/11/04 01:46:37;;;;;;;;;;;;;;;2.46;55.22;93009.78;5043291;28;19952;-66
2023/11/04 01:49:02;;;;;;;;;;;;;;;2.11;56.03;93007.91;5041278;28;19950;-69
2023/11/04 01:51:27;;;;;;;;;;;;;;;3.03;53.34;93001.81;5040664;28;19949;-65
2023/11/04 01:53:53;;;;;;;;;;;;;;;3.35;53.07;93009.22;5044388;28;19946;-66
2023/11/04 01:56:25;;;;;;;;;;;;;;;3.23;53.42;92999.25;5044450;28;19988;-64
2023/11/04 01:58:51;;;;;;;;;;;;;;;1.99;55.10;93000.56;5036801;28;20285;-67
2023/11/04 02:01:16;;;;;;;;;;;;;;;2.75;54.21;93000.88;5042506;28;20311;-65
2023/11/04 02:03:41;;;;;;;;;;;;;;;3.17;53.23;93000.06;5042990;28;20033;-68
2023/11/04 02:06:07;;;;;;;;;;;;;;;2.91;52.99;92999.75;5044382;28;20056;-66
2023/11/04 02:08:34;;;;;;;;;;;;;;;2.18;54.32;92994.84;5044085;28;19961;-67
2023/11/04 02:11:00;;;;;;;;;;;;;;;3.04;53.74;92991.09;5044168;28;20553;-65
2023/11/04 02:13:25;;;;;;;;;;;;;;;2.64;54.65;92994.34;5045364;28;19967;-66
2023/11/04 02:15:50;;;;;;;;;;;;;;;2.52;54.65;92995.88;5038174;28;20590;-68
2023/11/04 02:18:15;;;;;;;;;;;;;;;3.09;53.05;92992.34;5047774;28;19964;-67
2023/11/04 02:20:41;;;;;;;;;;;;;;;3.19;52.24;92994.59;5047257;28;19952;-65
2023/11/04 02:23:06;;;;;;;;;;;;;;;2.99;52.49;92992.72;5048994;28;20343;-67
2023/11/04 02:25:33;;;;;;;;;;;;;;;3.50;51.47;92999.38;5052803;28;19942;-67
2023/11/04 02:27:59;;;;;;;;;;;;;;;3.23;53.74;92998.47;5041215;28;20374;-66
2023/11/04 02:30:24;;;;;;;;;;;;;;;3.30;55.92;92991.38;5042605;28;19947;-68
2023/11/04 02:32:49;;;;;;;;;;;;;;;3.83;52.85;92987.31;5042582;28;20550;-68
2023/11/04 02:35:15;;;;;;;;;;;;;;;4.51;51.96;92987.28;5043098;28;20327;-68
2023/11/04 02:37:40;;;;;;;;;;;;;;;4.61;54.15;92985.06;5051984;28;20001;-67
2023/11/04 02:40:06;;;;;;;;;;;;;;;4.17;50.79;92977.59;5042850;28;19968;-69
2023/11/04 02:42:31;;;;;;;;;;;;;;;4.62;50.58;92984.03;5045811;28;19934;-65
2023/11/04 02:44:56;;;;;;;;;;;;;;;4.84;54.97;92975.88;5043085;28;19968;-65
2023/11/04 02:47:22;;;;;;;;;;;;;;;4.03;53.41;92970.72;5043861;28;19947;-66
2023/11/04 02:49:47;;;;;;;;;;;;;;;3.45;54.44;92977.31;5042720;28;20133;-65
2023/11/04 02:52:12;;;;;;;;;;;;;;;4.27;58.89;92976.38;5041656;28;19948;-64
2023/11/04 02:54:39;;;;;;;;;;;;;;;4.50;54.15;92975.16;5039853;28;19943;-66
2023/11/04 02:57:04;;;;;;;;;;;;;;;4.84;53.21;92973.25;5041028;28;20624;-66
2023/11/04 02:59:30;;;;;;;;;;;;;;;4.77;50.18;92970.63;5046322;28;20047;-65
2023/11/04 03:01:56;;;;;;;;;;;;;;;4.75;52.08;92970.03;5050823;28;19935;-65
2023/11/04 03:04:21;;;;;;;;;;;;;;;5.00;55.09;92963.28;5047772;28;19959;-65
2023/11/04 03:06:47;;;;;;;;;;;;;;;4.00;54.12;92968.47;5051078;28;19912;-66
2023/11/04 03:09:12;;;;;;;;;;;;;;;4.65;53.87;92972.28;5049844;28;19955;-65
2023/11/04 03:11:37;;;;;;;;;;;;;;;4.40;56.51;92965.03;5049140;28;20013;-65
2023/11/04 03:14:02;;;;;;;;;;;;;;;4.81;56.09;92971.03;5044309;28;19936;-65
2023/11/04 03:16:29;;;;;;;;;;;;;;;5.13;55.12;92965.88;5039139;28;20007;-66
2023/11/04 03:18:54;;;;;;;;;;;;;;;3.90;52.74;92963.59;5043891;28;19980;-66
2023/11/04 03:21:20;;;;;;;;;;;;;;;4.89;52.85;92973.44;5047693;28;20003;-66
2023/11/04 03:23:45;;;;;;;;;;;;;;;4.51;52.38;92977.56;5046765;28;19962;-65
2023/11/04 03:26:12;;;;;;;;;;;;;;;4.76;54.17;92957.66;5041757;28;19937;-66
2023/11/04 03:28:38;;;;;;;;;;;;;;;5.05;56.09;92945.81;5041789;28;19950;-65
2023/11/04 03:31:03;;;;;;;;;;;;;;;4.99;56.33;92951.13;5043583;28;19963;-66
2023/11/04 03:33:28;;;;;;;;;;;;;;;3.93;53.78;92963.22;5042336;28;19944;-65
2023/11/04 03:35:54;;;;;;;;;;;;;;;3.25;55.50;92965.69;5042484;28;20430;-65
2023/11/04 03:38:19;;;;;;;;;;;;;;;4.39;58.36;92966.03;5043409;28;19955;-64
2023/11/04 03:40:44;;;;;;;;;;;;;;;4.71;54.98;92964.38;5044939;28;20614;-65
2023/11/04 03:43:09;;;;;;;;;;;;;;;4.78;55.07;92968.81;5043701;28;19917;-65
2023/11/04 03:45:35;;;;;;;;;;;;;;;5.13;53.92;92957.97;5046374;28;20580;-66
2023/11/04 03:48:00;;;;;;;;;;;;;;;5.07;53.76;92956.97;5044488;28;19928;-65
2023/11/04 03:50:26;;;;;;;;;;;;;;;5.17;55.82;92953.88;5043344;28;20462;-66
2023/11/04 03:52:51;;;;;;;;;;;;;;;5.18;55.24;92946.78;5044666;28;20475;-64
2023/11/04 03:55:16;;;;;;;;;;;;;;;5.25;55.99;92946.75;5046730;28;19932;-70
2023/11/04 03:57:41;;;;;;;;;;;;;;;5.17;57.63;92947.81;5047036;28;20008;-68
2023/11/04 04:00:07;;;;;;;;;;;;;;;5.35;57.72;92940.00;5046771;28;19972;-69
2023/11/04 04:02:33;;;;;;;;;;;;;;;5.09;56.06;92938.31;5042755;28;20013;-68
2023/11/04 04:04:59;;;;;;;;;;;;;;;5.13;53.68;92939.50;5043632;28;19986;-69
2023/11/04 04:07:24;;;;;;;;;;;;;;;5.41;57.13;92930.44;5049697;28;20429;-69
2023/11/04 04:09:49;;;;;;;;;;;;;;;5.31;56.97;92928.25;5045437;28;19931;-68
2023/11/04 04:12:14;;;;;;;;;;;;;;;5.45;56.73;92922.91;5051226;28;19920;-66
2023/11/04 04:14:44;;;;;;;;;;;;;;;5.48;57.31;92920.66;5040657;28;20464;-66
2023/11/04 04:17:09;;;;;;;;;;;;;;;5.11;50.95;92920.44;5041368;28;19956;-66
2023/11/04 04:19:36;;;;;;;;;;;;;;;5.30;56.93;92926.63;5044195;28;20013;-68
2023/11/04 04:22:01;;;;;;;;;;;;;;;5.40;57.86;92920.06;5048632;28;19929;-69
2023/11/04 04:24:27;;;;;;;;;;;;;;;5.42;55.34;92924.16;5045521;28;19956;-69
2023/11/04 04:26:52;;;;;;;;;;;;;;;4.85;51.14;92924.78;5051809;28;19924;-67
2023/11/04 04:29:17;;;;;;;;;;;;;;;4.94;55.91;92917.44;5047047;28;20042;-67
2023/11/04 04:31:42;;;;;;;;;;;;;;;5.11;57.05;92917.81;5046313;28;20209;-65
2023/11/04 04:34:08;;;;;;;;;;;;;;;5.32;54.22;92911.41;5041040;28;19921;-65
2023/11/04 04:36:33;;;;;;;;;;;;;;;5.52;56.84;92917.59;5040630;28;19924;-68
2023/11/04 04:38:58;;;;;;;;;;;;;;;5.56;57.07;92905.59;5041560;28;20361;-71
2023/11/04 04:41:25;;;;;;;;;;;;;;;4.95;54.25;92909.34;5041303;28;19959;-66
2023/11/04 04:43:51;;;;;;;;;;;;;;;5.04;56.21;92903.81;5042281;28;19979;-67
2023/11/04 04:46:16;;;;;;;;;;;;;;;5.09;54.70;92907.47;5043412;28;20376;-68
2023/11/04 04:48:41;;;;;;;;;;;;;;;4.09;53.70;92906.72;5041400;28;19920;-64
2023/11/04 04:51:07;;;;;;;;;;;;;;;4.46;55.93;92911.53;5044655;28;19924;-68
2023/11/04 04:53:32;;;;;;;;;;;;;;;4.89;58.04;92910.16;5026378;28;19993;-65
2023/11/04 04:55:58;;;;;;;;;;;;;;;4.93;53.66;92894.75;5042138;28;20002;-69
2023/11/04 04:58:23;;;;;;;;;;;;;;;4.70;56.75;92896.03;5042911;28;20018;-68
2023/11/04 05:00:48;;;;;;;;;;;;;;;4.89;54.58;92896.16;5041376;28;19960;-64
2023/11/04 05:03:13;;;;;;;;;;;;;;;4.83;54.32;92889.91;5047145;28;19972;-66
2023/11/04 05:05:39;;;;;;;;;;;;;;;4.94;57.69;92885.81;5042300;28;19925;-64
2023/11/04 05:08:04;;;;;;;;;;;;;;;5.09;57.01;92888.19;5031741;28;19931;-65
2023/11/04 05:10:29;;;;;;;;;;;;;;;4.76;57.66;92883.88;5050355;28;19924;-64
2023/11/04 05:12:54;;;;;;;;;;;;;;;4.89;58.53;92875.88;5044955;28;19975;-64
2023/11/04 05:15:20;;;;;;;;;;;;;;;5.23;53.04;92867.81;5038349;28;19956;-63
2023/11/04 05:17:46;;;;;;;;;;;;;;;5.21;56.33;92868.03;5040207;28;20070;-63
2023/11/04 05:20:11;;;;;;;;;;;;;;;5.07;53.81;92862.03;5040885;28;20004;-64
2023/11/04 05:22:36;;;;;;;;;;;;;;;5.19;55.87;92858.72;5038878;28;20030;-64
2023/11/04 05:25:03;;;;;;;;;;;;;;;5.22;53.68;92863.56;5042555;28;19921;-64
2023/11/04 05:27:28;;;;;;;;;;;;;;;5.30;54.54;92854.59;5041499;28;19967;-64
2023/11/04 05:29:54;;;;;;;;;;;;;;;4.00;54.89;92861.34;5043137;28;19971;-64
2023/11/04 05:32:19;;;;;;;;;;;;;;;4.75;55.75;92846.13;5042550;28;20055;-64
2023/11/04 05:34:44;;;;;;;;;;;;;;;5.06;57.79;92843.78;5043053;28;19979;-65
2023/11/04 05:37:09;;;;;;;;;;;;;;;5.20;57.88;92847.13;5044258;28;19928;-65
2023/11/04 05:39:35;;;;;;;;;;;;;;;5.06;54.58;92841.13;5043572;28;19959;-65
2023/11/04 05:42:02;;;;;;;;;;;;;;;5.15;56.97;92839.88;5042206;28;19939;-64
2023/11/04 05:44:27;;;;;;;;;;;;;;;4.53;54.29;92843.78;5044720;28;20607;-64
2023/11/04 05:46:52;;;;;;;;;;;;;;;5.10;53.95;92842.31;5041481;28;19956;-64
2023/11/04 05:49:18;;;;;;;;;;;;;;;5.12;53.93;92839.47;5047093;28;19936;-64
2023/11/04 05:51:43;;;;;;;;;;;;;;;5.12;57.08;92835.03;5037413;28;20499;-63
2023/11/04 05:54:11;;;;;;;;;;;;;;;5.10;57.64;92826.50;5043528;28;19961;-64
2023/11/04 05:56:37;;;;;;;;;;;;;;;5.29;56.72;92814.22;5045416;28;20050;-63
2023/11/04 05:59:02;;;;;;;;;;;;;;;3.25;58.09;92817.63;5049446;28;20033;-64
2023/11/04 06:01:27;;;;;;;;;;;;;;;4.39;57.22;92815.88;5038957;28;19931;-64
2023/11/04 06:03:52;;;;;;;;;;;;;;;4.75;55.10;92813.69;5026866;28;19949;-64
2023/11/04 06:06:19;;;;;;;;;;;;;;;4.67;56.16;92807.66;5043665;28;19988;-64
2023/11/04 06:08:44;;;;;;;;;;;;;;;4.79;54.22;92805.16;5043236;28;19966;-64
2023/11/04 06:11:10;;;;;;;;;;;;;;;4.96;56.03;92816.03;5044271;28;19953;-62
2023/11/04 06:13:35;;;;;;;;;;;;;;;5.02;56.54;92805.63;5044535;28;19963;-63
2023/11/04 06:16:00;;;;;;;;;;;;;;;4.89;55.78;92802.06;5042134;28;19957;-65
2023/11/04 06:18:25;;;;;;;;;;;;;;;5.04;55.49;92796.47;5045543;28;20020;-64
2023/11/04 06:20:51;;;;;;;;;;;;;;;5.15;57.02;92802.97;5040977;28;19954;-62
2023/11/04 06:23:16;;;;;;;;;;;;;;;5.03;57.63;92796.72;5043468;28;19982;-63
2023/11/04 06:25:41;;;;;;;;;;;;;;;4.61;55.90;92797.94;5044572;28;20416;-65
2023/11/04 06:28:07;;;;;;;;;;;;;;;4.91;54.33;92792.13;5044215;28;19993;-64
2023/11/04 06:30:32;;;;;;;;;;;;;;;4.83;55.14;92793.16;5046250;28;19944;-61
2023/11/04 06:32:57;;;;;;;;;;;;;;;4.50;57.10;92780.97;5048933;28;19963;-64
2023/11/04 06:35:24;;;;;;;;;;;;;;;4.77;56.79;92785.31;5046946;28;19928;-65
2023/11/04 06:37:49;;;;;;;;;;;;;;;4.76;56.20;92783.69;5050159;28;20397;-64
2023/11/04 06:40:15;;;;;;;;;;;;;;;4.87;57.33;92774.28;5047930;28;20233;-63
2023/11/04 06:42:40;;;;;;;;;;;;;;;4.92;56.78;92769.19;5050394;28;19937;-64
2023/11/04 06:45:05;;;;;;;;;;;;;;;4.53;55.86;92770.00;5042549;28;20422;-64
2023/11/04 06:47:31;;;;;;;;;;;;;;;4.93;55.50;92761.06;5042603;28;19952;-62
2023/11/04 06:49:57;;;;;;;;;;;;;;;4.99;56.69;92767.31;5046422;28;20141;-64
2023/11/04 06:52:23;;;;;;;;;;;;;;;4.91;54.91;92757.84;5045934;28;20443;-61
2023/11/04 06:54:48;;;;;;;;;;;;;;;4.76;56.04;92765.25;5044120;28;19935;-63
2023/11/04 06:57:13;;;;;;;;;;;;;;;5.02;54.88;92753.72;5053217;28;20571;-63
2023/11/04 06:59:40;;;;;;;;;;;;;;;5.16;56.05;92757.09;5044881;28;20370;-64
2023/11/04 07:02:07;;;;;;;;;;;;;;;5.00;54.63;92758.38;5053719;28;19920;-63
2023/11/04 07:04:32;;;;;;;;;;;;;;;4.89;54.49;92751.97;5046739;28;19920;-63
2023/11/04 07:06:57;;;;;;;;;;;;;;;3.60;60.33;92756.16;5041465;28;19986;-64
2023/11/04 07:09:23;;;;;;;;;;;;;;;4.24;57.38;92748.47;5042511;28;20662;-63
2023/11/04 07:11:48;;;;;;;;;;;;;;;3.00;59.04;92757.75;5042736;28;20448;-63
2023/11/04 07:14:15;;;;;;;;;;;;;;;4.28;58.44;92748.84;5025104;28;20018;-64
2023/11/04 07:16:41;;;;;;;;;;;;;;;4.65;55.89;92735.91;5039305;28;19953;-61
2023/11/04 07:19:06;;;;;;;;;;;;;;;4.89;55.50;92740.59;5039675;28;20312;-61
2023/11/04 07:21:31;;;;;;;;;;;;;;;4.68;57.93;92740.75;5042753;28;19917;-63
2023/11/04 07:23:56;;;;;;;;;;;;;;;4.62;57.30;92736.31;5046831;28;19959;-63
2023/11/04 07:26:22;;;;;;;;;;;;;;;4.67;55.68;92754.13;5046329;28;19939;-67
2023/11/04 07:28:49;;;;;;;;;;;;;;;4.23;58.79;92738.94;5039827;28;20007;-69
2023/11/04 07:31:14;;;;;;;;;;;;;;;4.48;56.87;92732.13;5038058;28;19924;-63
2023/11/04 07:33:40;;;;;;;;;;;;;;;4.26;56.57;92741.16;5041474;28;19924;-67
2023/11/04 07:36:05;;;;;;;;;;;;;;;4.47;57.72;92743.69;5042142;28;20414;-69
2023/11/04 07:38:31;;;;;;;;;;;;;;;4.50;57.33;92738.81;5026083;28;19954;-67
2023/11/04 07:40:56;;;;;;;;;;;;;;;4.41;56.39;92740.88;5042828;28;20470;-65
2023/11/04 07:43:21;;;;;;;;;;;;;;;4.63;56.61;92724.75;5045011;28;19947;-66
2023/11/04 07:45:48;;;;;;;;;;;;;;;4.94;57.01;92730.25;5040760;28;21411;-68
2023/11/04 07:48:14;;;;;;;;;;;;;;;4.76;57.28;92723.84;5046469;28;20047;-67
2023/11/04 07:50:39;;;;;;;;;;;;;;;4.61;56.00;92729.44;5044819;28;19938;-66
2023/11/04 07:53:04;;;;;;;;;;;;;;;3.48;61.14;92724.38;5047420;28;19976;-66
2023/11/04 07:55:30;;;;;;;;;;;;;;;3.32;61.68;92722.94;5044835;28;19959;-65
2023/11/04 07:57:55;;;;;;;;;;;;;;;3.90;58.05;92719.63;5049467;28;19962;-68
2023/11/04 08:00:20;;;;;;;;;;;;;;;4.35;58.07;92719.84;5045855;28;19932;-66
2023/11/04 08:02:47;;;;;;;;;;;;;;;4.77;59.45;92707.03;5050292;28;20035;-67
2023/11/04 08:05:14;;;;;;;;;;;;;;;3.95;59.98;92705.84;5042919;28;20447;-68
2023/11/04 08:07:39;;;;;;;;;;;;;;;4.58;58.19;92703.50;5050441;28;19967;-65
2023/11/04 08:10:05;;;;;;;;;;;;;;;4.84;57.96;92705.16;5044028;28;19927;-68
2023/11/04 08:12:30;;;;;;;;;;;;;;;4.74;57.20;92693.47;5040414;28;19960;-65
2023/11/04 08:14:56;;;;;;;;;;;;;;;4.41;60.00;92695.28;5037334;28;19925;-65
2023/11/04 08:17:21;;;;;;;;;;;;;;;4.38;56.53;92687.81;5038450;28;19932;-65
2023/11/04 08:19:46;;;;;;;;;;;;;;;4.61;56.36;92684.63;5042629;28;19949;-67
2023/11/04 08:22:12;;;;;;;;;;;;;;;4.90;57.49;92679.75;5041636;28;19971;-68
2023/11/04 08:24:37;;;;;;;;;;;;;;;4.90;57.37;92679.75;5038909;28;19950;-66
2023/11/04 08:27:03;;;;;;;;;;;;;;;4.84;55.99;92680.63;5022176;28;19959;-66
2023/11/04 08:29:30;;;;;;;;;;;;;;;5.01;56.17;92686.19;5040398;28;19972;-65
2023/11/04 08:31:55;;;;;;;;;;;;;;;4.66;56.39;92684.78;5038901;28;19924;-66
2023/11/04 08:34:21;;;;;;;;;;;;;;;4.86;58.84;92675.94;5040531;28;19984;-67
2023/11/04 08:36:46;;;;;;;;;;;;;;;4.18;58.81;92665.84;5042263;28;20031;-64
2023/11/04 08:39:12;;;;;;;;;;;;;;;4.82;56.62;92669.47;5038957;28;19971;-63
2023/11/04 08:41:37;;;;;;;;;;;;;;;4.85;58.54;92661.16;5045210;28;19960;-63
2023/11/04 08:44:03;;;;;;;;;;;;;;;4.70;56.77;92667.53;5045993;28;19961;-65
2023/11/04 08:46:28;;;;;;;;;;;;;;;4.75;59.17;92664.25;5040940;28;19943;-64
2023/11/04 08:48:54;;;;;;;;;;;;;;;4.88;57.42;92657.28;5050116;28;19921;-64
2023/11/04 08:51:19;;;;;;;;;;;;;;;4.56;56.78;92653.66;5039458;28;19954;-64
2023/11/04 08:53:44;;;;;;;;;;;;;;;4.66;59.49;92658.44;5039187;28;19960;-64
2023/11/04 08:56:09;;;;;;;;;;;;;;;4.70;57.54;92659.63;5039858;28;19951;-64
2023/11/04 08:58:35;;;;;;;;;;;;;;;4.34;61.81;92642.66;5042579;28;19953;-64
2023/11/04 09:01:01;;;;;;;;;;;;;;;4.94;55.16;92643.25;5040262;28;20503;-64
2023/11/04 09:03:26;;;;;;;;;;;;;;;3.84;58.90;92638.06;5042290;28;19968;-63
2023/11/04 09:05:52;;;;;;;;;;;;;;;3.98;61.07;92633.53;5044693;28;19921;-64
2023/11/04 09:08:17;;;;;;;;;;;;;;;4.58;58.15;92632.34;5040543;28;20625;-64
2023/11/04 09:10:42;;;;;;;;;;;;;;;4.35;57.16;92617.13;5041662;28;19993;-63
2023/11/04 09:13:08;;;;;;;;;;;;;;;5.12;57.01;92607.41;5041492;28;19961;-64
2023/11/04 09:15:34;;;;;;;;;;;;;;;5.01;55.51;92606.25;5039786;28;19959;-63
2023/11/04 09:17:59;;;;;;;;;;;;;;;4.53;58.08;92616.38;5037673;28;19961;-65
2023/11/04 09:20:24;;;;;;;;;;;;;;;2.29;64.02;92618.84;5045349;28;19920;-63
2023/11/04 09:22:49;;;;;;;;;;;;;;;3.59;60.48;92605.38;5039244;28;19980;-65
2023/11/04 09:25:15;;;;;;;;;;;;;;;3.98;59.59;92607.22;5046963;28;19935;-64
2023/11/04 09:27:40;;;;;;;;;;;;;;;4.18;61.73;92600.00;5043288;28;20406;-65
2023/11/04 09:30:07;;;;;;;;;;;;;;;4.88;58.00;92597.47;5048539;28;19925;-64
2023/11/04 09:32:32;;;;;;;;;;;;;;;4.63;58.12;92595.63;5037872;28;20032;-63
2023/11/04 09:34:57;;;;;;;;;;;;;;;5.03;57.14;92596.31;5044977;28;20416;-65
2023/11/04 09:37:23;;;;;;;;;;;;;;;4.78;61.11;92586.59;5045679;28;19986;-64
2023/11/04 09:39:48;;;;;;;;;;;;;;;5.45;59.87;92587.78;5047175;28;20079;-64
2023/11/04 09:42:13;;;;;;;;;;;;;;;5.39;56.06;92584.19;5043420;28;19942;-64
2023/11/04 09:44:38;;;;;;;;;;;;;;;5.58;58.26;92568.38;5043943;28;19932;-64
2023/11/04 09:47:04;;;;;;;;;;;;;;;5.84;55.15;92561.13;5044878;28;20123;-65
2023/11/04 09:49:29;;;;;;;;;;;;;;;5.79;53.58;92564.44;5040165;28;20084;-64
2023/11/04 09:51:55;;;;;;;;;;;;;;;5.76;53.69;92550.88;5039987;28;19955;-63
2023/11/04 09:54:20;;;;;;;;;;;;;;;5.69;55.20;92546.50;5040822;28;20021;-64
2023/11/04 09:56:45;;;;;;;;;;;;;;;6.19;55.07;92544.56;5048387;28;19962;-64
2023/11/04 09:59:11;;;;;;;;;;;;;;;6.08;54.39;92538.25;5050782;28;19931;-62
2023/11/04 10:01:36;;;;;;;;;;;;;;;6.27;53.27;92534.72;5047016;28;20567;-64
2023/11/04 10:04:01;;;;;;;;;;;;;;;6.57;54.06;92526.78;5052497;28;19954;-63
2023/11/04 10:06:27;;;;;;;;;;;;;;;6.49;54.11;92524.44;5048126;28;19917;-65
2023/11/04 10:08:52;;;;;;;;;;;;;;;4.94;54.17;92533.28;5048531;28;19927;-63
2023/11/04 10:11:17;;;;;;;;;;;;;;;5.57;56.50;92508.66;5045242;28;19946;-64
2023/11/04 10:13:43;;;;;;;;;;;;;;;6.39;53.16;92498.53;5053572;28;19924;-64
2023/11/04 10:16:08;;;;;;;;;;;;;;;6.71;54.10;92494.81;5041126;28;20538;-65
2023/11/04 10:18:33;;;;;;;;;;;;;;;6.87;51.20;92494.09;5040765;28;19980;-61
2023/11/04 10:20:59;;;;;;;;;;;;;;;6.96;52.32;92491.91;5041971;28;19941;-62
2023/11/04 10:23:24;;;;;;;;;;;;;;;7.23;51.53;92490.59;5035552;28;19913;-61
2023/11/04 10:25:49;;;;;;;;;;;;;;;6.49;52.49;92485.59;5048409;28;20405;-65
2023/11/04 10:28:16;;;;;;;;;;;;;;;6.62;52.31;92475.84;5040768;28;19965;-63
2023/11/04 10:30:41;;;;;;;;;;;;;;;6.82;52.90;92474.66;5041870;28;19917;-64
2023/11/04 10:33:07;;;;;;;;;;;;;;;6.63;50.36;92472.97;5047138;28;20016;-64
2023/11/04 10:35:33;;;;;;;;;;;;;;;6.00;52.75;92472.53;5040676;28;20396;-64
2023/11/04 10:37:58;;;;;;;;;;;;;;;5.83;53.05;92467.91;5039907;28;19929;-62
2023/11/04 10:40:23;;;;;;;;;;;;;;;6.32;53.60;92447.66;5048210;28;20011;-65
2023/11/04 10:43:00;;;;;;;;;;;;;;;5.97;55.50;92450.03;5040366;28;20209;-64
2023/11/04 10:45:33;;;;;;;;;;;;;;;6.06;54.19;92447.84;5041410;28;19985;-65
2023/11/04 10:47:59;;;;;;;;;;;;;;;5.45;55.00;92443.44;5046050;28;19921;-65
2023/11/04 10:50:35;;;;;;;;;;;;;;;5.95;53.90;92444.16;5046718;28;20575;-64
2023/11/04 10:53:12;;;;;;;;;;;;;;;5.70;53.70;92439.88;5044077;28;20382;-60
2023/11/04 10:55:58;;;;;;;;;;;;;;;5.86;55.77;92417.28;5039316;28;20192;-64
2023/11/04 10:58:26;;;;;;;;;;;;;;;6.16;52.65;92420.09;5042843;28;19960;-66
2023/11/04 11:00:51;;;;;;;;;;;;;;;5.94;51.76;92408.25;5046693;28;19917;-68
2023/11/04 11:03:17;;;;;;;;;;;;;;;5.97;52.00;92397.22;5048353;28;19954;-69
2023/11/04 11:05:42;;;;;;;;;;;;;;;5.31;53.07;92397.19;5047298;28;19952;-66
2023/11/04 11:08:07;;;;;;;;;;;;;;;5.27;53.64;92396.03;5050866;28;19951;-64
2023/11/04 11:10:53;;;;;;;;;;;;;;;5.38;52.89;92389.19;5048068;28;19947;-66
2023/11/04 11:13:19;;;;;;;;;;;;;;;5.49;53.29;92388.41;5040911;28;20345;-71
2023/11/04 11:15:46;;;;;;;;;;;;;;;5.48;53.05;92371.78;5038867;28;19912;-69
2023/11/04 11:18:11;;;;;;;;;;;;;;;4.97;55.45;92360.69;5041044;28;19973;-66
2023/11/04 11:20:37;;;;;;;;;;;;;;;4.70;55.98;92359.19;5042698;28;19961;-70
2023/11/04 11:23:08;;;;;;;;;;;;;;;5.10;55.03;92346.53;5038922;28;20354;-69
2023/11/04 11:25:34;;;;;;;;;;;;;;;5.00;54.63;92352.31;5045563;28;19923;-64
2023/11/04 11:28:00;;;;;;;;;;;;;;;5.40;53.98;92345.72;5043416;28;20941;-67
2023/11/04 11:30:37;;;;;;;;;;;;;;;5.76;53.00;92334.41;5047128;28;19954;-66
2023/11/04 11:33:07;;;;;;;;;;;;;;;5.51;53.30;92330.94;5044970;28;20602;-68
2023/11/04 11:35:51;;;;;;;;;;;;;;;5.54;53.37;92327.06;5047722;28;20316;-68
2023/11/04 11:38:16;;;;;;;;;;;;;;;4.73;56.20;92318.41;5045667;28;20633;-65
2023/11/04 11:40:41;;;;;;;;;;;;;;;4.68;56.59;92316.44;5037709;28;19955;-67
2023/11/04 11:43:06;;;;;;;;;;;;;;;5.34;54.60;92320.25;5038998;28;19962;-66
2023/11/04 11:45:32;;;;;;;;;;;;;;;5.58;53.88;92317.66;5042020;28;20504;-69
2023/11/04 11:47:57;;;;;;;;;;;;;;;5.48;54.82;92305.03;5043595;28;20038;-70
2023/11/04 11:50:24;;;;;;;;;;;;;;;5.31;55.69;92296.97;5040541;28;20621;-66
2023/11/04 11:52:50;;;;;;;;;;;;;;;5.41;54.92;92297.19;5041355;28;20553;-69
2023/11/04 11:55:15;;;;;;;;;;;;;;;5.85;54.20;92288.94;5046979;28;19951;-68
2023/11/04 11:57:40;;;;;;;;;;;;;;;5.20;55.37;92286.16;5049740;28;20698;-67
2023/11/04 12:00:06;;;;;;;;;;;;;;;5.60;56.24;92276.81;5041542;28;20421;-67
2023/11/04 12:02:31;;;;;;;;;;;;;;;5.53;55.02;92262.09;5039666;28;20026;-67
2023/11/04 12:04:56;;;;;;;;;;;;;;;5.98;53.74;92240.38;5039693;28;19925;-66
2023/11/04 12:07:21;;;;;;;;;;;;;;;5.99;54.64;92236.69;5041574;28;19939;-62
2023/11/04 12:09:47;;;;;;;;;;;;;;;6.23;52.88;92222.66;5040494;28;19999;-63
2023/11/04 12:12:15;;;;;;;;;;;;;;;5.50;54.56;92223.00;5043603;28;19976;-61
2023/11/04 12:14:41;;;;;;;;;;;;;;;5.79;53.89;92221.25;5038935;28;20397;-63
2023/11/04 12:17:08;;;;;;;;;;;;;;;5.99;53.13;92215.56;5039780;28;20620;-61
2023/11/04 12:19:34;;;;;;;;;;;;;;;6.20;53.64;92210.72;5039619;28;19943;-61
2023/11/04 12:21:59;;;;;;;;;;;;;;;6.03;53.63;92201.91;5036723;28;19925;-61
2023/11/04 12:24:24;;;;;;;;;;;;;;;6.31;53.33;92197.69;5038377;28;19921;-61
2023/11/04 12:26:53;;;;;;;;;;;;;;;6.18;53.10;92194.28;5044624;28;19955;-61
2023/11/04 12:29:18;;;;;;;;;;;;;;;6.41;52.18;92186.50;5036773;28;20581;-60
2023/11/04 12:31:44;;;;;;;;;;;;;;;6.14;53.89;92179.94;5038236;28;19952;-62
2023/11/04 12:34:10;;;;;;;;;;;;;;;6.30;54.06;92174.97;5041208;28;19953;-63
2023/11/04 12:36:35;;;;;;;;;;;;;;;6.42;53.51;92165.13;5042690;28;19925;-62
2023/11/04 12:39:02;;;;;;;;;;;;;;;5.92;53.21;92153.38;5036094;28;20474;-62
2023/11/04 12:41:27;;;;;;;;;;;;;;;6.36;52.65;92126.47;5039410;28;19962;-63
2023/11/04 12:43:52;;;;;;;;;;;;;;;5.98;53.39;92132.13;5038879;28;19944;-65
2023/11/04 12:46:19;;;;;;;;;;;;;;;5.84;53.69;92128.13;5042785;28;19927;-65
2023/11/04 12:48:45;;;;;;;;;;;;;;;6.01;53.84;92115.00;5041448;28;20141;-61
2023/11/04 12:51:10;;;;;;;;;;;;;;;5.78;52.79;92113.25;5042113;28;19921;-62